createdAt,value
2022-08-09T00:00:16.670Z,89.083333
2022-08-09T00:06:18.995Z,89.004167
2022-08-09T00:06:23.131Z,89.004167
2022-08-09T00:10:21.357Z,89.337500
2022-08-09T00:15:16.707Z,89.200000
2022-08-09T00:20:16.751Z,89.232000
2022-08-09T00:25:23.091Z,89.237500
2022-08-09T00:30:26.674Z,89.336000
2022-08-09T00:35:17.046Z,89.348000
2022-08-09T00:40:17.525Z,89.366667
2022-08-09T00:45:16.949Z,89.452000
2022-08-09T00:50:17.055Z,89.350000
2022-08-09T00:56:03.304Z,89.220000
2022-08-09T01:00:21.028Z,89.579167
2022-08-09T01:05:21.809Z,89.696000
2022-08-09T01:10:16.738Z,89.700000
2022-08-09T01:15:17.648Z,89.525000
2022-08-09T01:20:16.694Z,89.829167
2022-08-09T01:25:19.013Z,89.644000
2022-08-09T01:30:35.494Z,89.787500
2022-08-09T01:35:29.160Z,89.808333
2022-08-09T01:40:23.232Z,89.732000
2022-08-09T01:45:16.770Z,89.633333
2022-08-09T01:50:16.750Z,89.758333
2022-08-09T01:55:16.844Z,89.850000
2022-08-09T02:00:34.952Z,89.816667
2022-08-09T02:05:16.676Z,89.666667
2022-08-09T02:10:16.710Z,89.829167
2022-08-09T02:15:17.243Z,89.891667
2022-08-09T02:20:25.116Z,90.050000
2022-08-09T02:25:16.986Z,89.962500
2022-08-09T02:30:17.103Z,89.995833
2022-08-09T02:35:17.669Z,90.050000
2022-08-09T02:40:18.593Z,90.141667
2022-08-09T02:45:16.725Z,89.945833
2022-08-09T02:50:16.701Z,90.000000
2022-08-09T02:55:20.590Z,90.300000
2022-08-09T03:00:25.639Z,89.970833
2022-08-09T03:05:16.907Z,90.133333
2022-08-09T03:10:16.654Z,90.268000
2022-08-09T03:15:16.716Z,90.212000
2022-08-09T03:20:16.644Z,90.104167
2022-08-09T03:25:56.884Z,90.466667
2022-08-09T03:30:29.877Z,90.325000
2022-08-09T03:35:24.776Z,90.245833
2022-08-09T03:40:17.831Z,90.483333
2022-08-09T03:45:16.838Z,90.183333
2022-08-09T03:50:18.874Z,90.437500
2022-08-09T03:55:16.637Z,90.258333
2022-08-09T04:00:16.991Z,90.350000
2022-08-09T04:05:26.799Z,90.637500
2022-08-09T04:10:20.556Z,90.654167
2022-08-09T04:15:29.296Z,90.768000
2022-08-09T04:20:16.710Z,90.795833
2022-08-09T04:25:16.572Z,90.862500
2022-08-09T04:30:16.656Z,90.983333
2022-08-09T04:35:16.742Z,91.183333
2022-08-09T04:40:28.849Z,91.437500
2022-08-09T04:45:20.597Z,91.395833
2022-08-09T04:50:16.668Z,91.550000
2022-08-09T04:55:16.747Z,91.466667
2022-08-09T05:00:17.157Z,91.641667
2022-08-09T05:05:31.292Z,91.762500
2022-08-09T05:10:16.680Z,91.460000
2022-08-09T05:15:38.344Z,91.154167
2022-08-09T05:20:16.728Z,90.966667
2022-08-09T05:25:16.556Z,90.750000
2022-08-09T05:30:19.380Z,90.237500
2022-08-09T05:35:16.621Z,89.572000
2022-08-09T05:40:16.692Z,88.270833
2022-08-09T05:45:16.773Z,88.183333
2022-08-09T05:50:25.765Z,87.320833
2022-08-09T05:55:20.897Z,84.420833
2022-08-09T06:00:16.841Z,81.900000
2022-08-09T06:05:17.099Z,80.962500
2022-08-09T06:10:18.020Z,81.016667
2022-08-09T06:15:16.723Z,80.050000
2022-08-09T06:20:18.348Z,76.187500
2022-08-09T06:25:17.147Z,73.037500
2022-08-09T06:30:16.884Z,71.304167
2022-08-09T06:35:16.684Z,68.758333
2022-08-09T06:40:23.873Z,66.779167
2022-08-09T06:46:05.218Z,65.770833
2022-08-09T06:50:19.279Z,63.400000
2022-08-09T06:55:16.785Z,62.183333
2022-08-09T07:00:55.411Z,64.012500
2022-08-09T07:05:16.535Z,60.537500
2022-08-09T07:10:29.442Z,61.291667
2022-08-09T07:15:53.995Z,59.158333
2022-08-09T07:16:41.579Z,59.158333
2022-08-09T07:20:16.613Z,58.408333
2022-08-09T07:25:16.758Z,58.483333
2022-08-09T07:30:16.621Z,55.512500
2022-08-09T07:35:16.610Z,53.858333
2022-08-09T07:40:17.238Z,54.072000
2022-08-09T07:45:23.692Z,51.940000
2022-08-09T07:50:16.540Z,51.504167
2022-08-09T07:55:16.595Z,51.448000
2022-08-09T08:00:20.844Z,50.933333
2022-08-09T08:05:18.517Z,50.275000
2022-08-09T08:10:18.317Z,49.800000
2022-08-09T08:15:17.311Z,49.650000
2022-08-09T08:20:16.604Z,47.283333
2022-08-09T08:25:16.594Z,46.208333
2022-08-09T08:30:16.630Z,46.040000
2022-08-09T08:35:18.236Z,44.150000
2022-08-09T08:40:16.657Z,44.641667
2022-08-09T08:45:16.728Z,46.708333
2022-08-09T08:50:18.080Z,43.816667
2022-08-09T08:55:23.072Z,44.187500
2022-08-09T09:00:20.751Z,41.408000
2022-08-09T09:05:16.506Z,42.608333
2022-08-09T09:10:16.804Z,41.950000
2022-08-09T09:15:28.230Z,38.866667
2022-08-09T09:20:16.674Z,40.045833
2022-08-09T09:26:05.066Z,42.858333
2022-08-09T09:30:38.231Z,41.020833
2022-08-09T09:35:17.784Z,41.850000
2022-08-09T09:40:17.789Z,42.016667
2022-08-09T09:45:25.753Z,40.200000
2022-08-09T09:50:17.256Z,38.832000
2022-08-09T09:55:32.573Z,41.704000
2022-08-09T10:00:16.538Z,40.941667
2022-08-09T10:05:16.518Z,39.408333
2022-08-09T10:10:18.581Z,38.791667
2022-08-09T10:15:17.559Z,39.016667
2022-08-09T10:20:16.580Z,40.591667
2022-08-09T10:25:16.471Z,36.991667
2022-08-09T10:35:16.632Z,39.341667
2022-08-09T10:40:35.108Z,38.491667
2022-08-09T10:45:16.832Z,38.616667
2022-08-09T10:50:16.531Z,39.300000
2022-08-09T10:55:16.536Z,36.112500
2022-08-09T11:00:16.510Z,38.083333
2022-08-09T11:05:24.640Z,36.775000
2022-08-09T11:10:16.522Z,36.456000
2022-08-09T11:15:18.978Z,36.183333
2022-08-09T11:20:22.417Z,37.645833
2022-08-09T11:25:16.786Z,39.900000
2022-08-09T11:30:32.757Z,39.970833
2022-08-09T11:35:16.499Z,39.288000
2022-08-09T11:40:17.954Z,39.970833
2022-08-09T11:45:16.520Z,35.708333
2022-08-09T11:50:53.252Z,36.208333
2022-08-09T11:55:16.508Z,38.624000
2022-08-09T12:00:17.937Z,37.150000
2022-08-09T12:05:17.845Z,37.695833
2022-08-09T12:10:38.677Z,38.388000
2022-08-09T12:15:22.170Z,36.833333
2022-08-09T12:20:21.534Z,36.312500
2022-08-09T12:25:16.438Z,38.929167
2022-08-09T12:30:36.760Z,39.687500
2022-08-09T12:35:21.597Z,37.516667
2022-08-09T12:40:16.470Z,36.904167
2022-08-09T12:45:34.787Z,37.512500
2022-08-09T12:50:16.435Z,38.525000
2022-08-09T12:56:12.272Z,39.866667
2022-08-09T13:00:16.566Z,40.545833
2022-08-09T13:05:16.596Z,38.233333
2022-08-09T13:10:16.454Z,36.691667
2022-08-09T13:15:16.950Z,35.920833
2022-08-09T13:20:22.851Z,35.520833
2022-08-09T13:25:16.439Z,37.516667
2022-08-09T13:30:50.691Z,38.291667
2022-08-09T13:32:15.269Z,38.291667
2022-08-09T13:35:16.525Z,36.312500
2022-08-09T13:41:54.455Z,34.733333
2022-08-09T13:41:55.412Z,34.733333
2022-08-09T13:45:16.543Z,33.670833
2022-08-09T13:50:30.723Z,33.854167
2022-08-09T13:55:17.788Z,32.795833
2022-08-09T14:00:16.455Z,34.200000
2022-08-09T14:05:57.031Z,35.412500
2022-08-09T14:10:17.357Z,36.041667
2022-08-09T14:16:06.752Z,37.100000
2022-08-09T14:20:16.485Z,36.962500
2022-08-09T14:25:16.635Z,37.858333
2022-08-09T14:30:41.306Z,38.075000
2022-08-09T14:35:16.500Z,38.937500
2022-08-09T14:40:16.611Z,38.062500
2022-08-09T14:46:46.363Z,39.254167
2022-08-09T14:46:51.326Z,39.254167
2022-08-09T14:50:17.528Z,38.250000
2022-08-09T14:55:20.424Z,38.691667
2022-08-09T15:00:16.744Z,36.741667
2022-08-09T15:05:17.074Z,36.950000
2022-08-09T15:10:16.891Z,38.533333
2022-08-09T15:15:16.482Z,37.925000
2022-08-09T15:21:53.694Z,34.816667
2022-08-09T15:22:00.929Z,34.816667
2022-08-09T15:25:16.478Z,34.733333
2022-08-09T15:30:56.598Z,34.837500
2022-08-09T15:35:17.864Z,35.558333
2022-08-09T15:40:19.861Z,36.566667
2022-08-09T15:45:16.507Z,37.037500
2022-08-09T15:50:16.883Z,36.816667
2022-08-09T15:55:16.530Z,38.275000
2022-08-09T16:00:21.890Z,37.716667
2022-08-09T16:05:16.437Z,38.566667
2022-08-09T16:10:38.620Z,38.766667
2022-08-09T16:16:10.909Z,38.233333
2022-08-09T16:20:16.504Z,41.700000
2022-08-09T16:25:16.552Z,41.329167
2022-08-09T16:30:28.623Z,44.966667
2022-08-09T16:35:53.389Z,44.695833
2022-08-09T16:40:20.614Z,44.232000
2022-08-09T16:45:16.851Z,46.533333
2022-08-09T16:50:29.950Z,47.116667
2022-08-09T16:55:18.113Z,47.554167
2022-08-09T17:00:16.567Z,44.366667
2022-08-09T17:05:19.640Z,48.400000
2022-08-09T17:10:16.468Z,48.637500
2022-08-09T17:15:31.394Z,48.391667
2022-08-09T17:20:33.280Z,46.891667
2022-08-09T17:25:16.491Z,49.666667
2022-08-09T17:30:16.427Z,50.658333
2022-08-09T17:35:16.751Z,53.837500
2022-08-09T17:40:18.143Z,56.783333
2022-08-09T17:45:27.380Z,54.679167
2022-08-09T17:50:24.701Z,55.548000
2022-08-09T17:55:16.649Z,55.512500
2022-08-09T18:00:16.596Z,56.320833
2022-08-09T18:05:16.278Z,57.508333
2022-08-09T18:10:16.368Z,59.287500
2022-08-09T18:15:16.378Z,60.400000
2022-08-09T18:20:59.400Z,62.429167
2022-08-09T18:25:16.335Z,62.383333
2022-08-09T18:30:42.421Z,63.629167
2022-08-09T18:35:16.387Z,64.987500
2022-08-09T18:40:16.356Z,66.912500
2022-08-09T18:46:44.922Z,67.252000
2022-08-09T18:46:50.842Z,67.252000
2022-08-09T18:50:16.579Z,67.824000
2022-08-09T18:55:16.708Z,70.475000
2022-08-09T19:00:20.513Z,73.000000
2022-08-09T19:05:28.762Z,74.254167
2022-08-09T19:10:17.724Z,75.300000
2022-08-09T19:15:16.530Z,74.370833
2022-08-09T19:20:16.336Z,74.432000
2022-08-09T19:25:41.378Z,75.300000
2022-08-09T19:30:22.962Z,76.192000
2022-08-09T19:35:16.383Z,77.237500
2022-08-09T19:40:19.197Z,77.883333
2022-08-09T19:45:16.568Z,76.704000
2022-08-09T19:50:49.070Z,76.975000
2022-08-09T19:55:16.588Z,77.266667
2022-08-09T20:00:16.540Z,77.766667
2022-08-09T20:05:17.020Z,77.912500
2022-08-09T20:10:17.616Z,78.100000
2022-08-09T20:16:32.750Z,78.975000
2022-08-09T20:16:33.818Z,78.975000
2022-08-09T20:20:16.571Z,79.450000
2022-08-09T20:25:22.882Z,80.454167
2022-08-09T20:30:17.887Z,80.750000
2022-08-09T20:35:16.337Z,79.800000
2022-08-09T20:40:18.989Z,79.360000
2022-08-09T20:46:00.038Z,80.195833
2022-08-09T20:50:47.054Z,81.275000
2022-08-09T20:55:16.340Z,81.941667
2022-08-09T21:00:19.844Z,82.932000
2022-08-09T21:05:57.206Z,83.724000
2022-08-09T21:10:16.509Z,83.987500
2022-08-09T21:15:16.524Z,84.654167
2022-08-09T21:20:22.831Z,84.975000
2022-08-09T21:25:16.321Z,85.062500
2022-08-09T21:30:16.295Z,85.141667
2022-08-09T21:35:16.356Z,85.541667
2022-08-09T21:40:22.179Z,86.116000
2022-08-09T21:45:17.500Z,86.472000
2022-08-09T21:50:17.663Z,86.512500
2022-08-09T21:55:16.411Z,86.654167
2022-08-09T22:00:16.269Z,86.856000
2022-08-09T22:05:22.460Z,86.824000
2022-08-09T22:10:22.067Z,86.916667
2022-08-09T22:15:16.880Z,87.366667
2022-08-09T22:20:17.086Z,87.475000
2022-08-09T22:26:08.429Z,87.541667
2022-08-09T22:30:31.387Z,87.716000
2022-08-09T22:36:02.020Z,87.904167
2022-08-09T22:40:20.112Z,87.962500
2022-08-09T22:48:10.961Z,88.133333
2022-08-09T22:48:15.519Z,88.133333
2022-08-09T22:48:16.873Z,88.133333
2022-08-09T22:50:16.283Z,88.366667
2022-08-09T22:55:21.785Z,88.354167
2022-08-09T23:00:16.345Z,87.991667
2022-08-09T23:05:16.325Z,88.308333
2022-08-09T23:10:16.283Z,88.570833
2022-08-09T23:15:16.436Z,88.579167
2022-08-09T23:20:16.244Z,88.633333
2022-08-09T23:25:16.340Z,88.870833
2022-08-09T23:30:16.383Z,89.037500
2022-08-09T23:35:16.425Z,88.908333
2022-08-09T23:40:16.263Z,89.050000
2022-08-09T23:45:36.357Z,88.833333
2022-08-09T23:50:16.280Z,89.141667
2022-08-09T23:55:17.923Z,89.233333
